Nearby METAR Reports

 

KSJC - San Jose, California, USA
Distance from station: NE 14km
Updated: 2020-04-05 18:53
Light rain, Overcast
Light rain, Overcast
 Wind from NE
Wind: NE 7 km/h
Temperature: 11°C
Dew Point: 8°C
Humidity: 82%
Barometer: 1005.4 hPa
Summary: Light rain
Clouds: Overcast
Visibility: 10 km
Cloud details: Few Clouds 30 m
Mostly cloudy 1219 m
Overcast 3048 m
2020/04/05 23:53 KSJC 052353Z 04004KT 6SM -RA FEW001 BKN040 OVC100 11/08 A2969 RMK AO2 SLP052 P0012 60045 T01060078 10128 20100 56004 $
KNUQ - Moffett Nas/Mtn, California, USA
Distance from station: N 14km
Updated: 2019-11-21 10:56
NOT Current

 
Barometer: 1011.2 hPa
2019/11/21 16:56 KNUQ 211656Z AUTO A2986 RMK AO2 SLP116 PWINO $
 
KPAO - Palo Alto, California, USA
Distance from station: NNW 23km
Updated: 2020-04-05 19:47
Nearby showers, Overcast
Nearby showers, Overcast
 Wind from calm
Wind: Calm
Temperature: 10°C
Dew Point: 7°C
Humidity: 82%
Barometer: 1005.8 hPa
Summary: Nearby Showers
Clouds: Overcast
Visibility: 16 km
Cloud details: Partly cloudy 610 m
Overcast 1524 m
2020/04/06 00:47 KPAO 060047Z 00000KT 10SM VCSH SCT020 OVC050 10/07 A2970
KRHV - San Jose/Reid, California, USA
Distance from station: ENE 19km
Updated: 2020-04-05 18:47
Rain, Overcast
Rain, Overcast
 Wind from SE
Wind: SE 13 km/h
Temperature: 10°C
Wind Chill: 8°C
Dew Point: 8°C
Humidity: 88%
Barometer: 1005.8 hPa
Summary: Rain
Clouds: Overcast
Visibility: 6 km
Cloud details: Mostly cloudy 610 m
Overcast 1524 m
2020/04/05 23:47 KRHV 052347Z 13007KT 4SM RA BKN020 OVC050 10/08 A2970
 
KOAK - Oakland, California, USA
Distance from station: NNW 50km
Updated: 2020-04-05 18:53
Overcast
Overcast
 Wind from WSW
Wind: WSW 13 km/h
Temperature: 13°C
Dew Point: 7°C
Humidity: 67%
Barometer: 1005.4 hPa
Clouds: Overcast
Visibility: 16 km
Cloud details: Partly cloudy 549 m
Partly cloudy 1219 m
Mostly cloudy 1829 m
Overcast 5486 m
2020/04/05 23:53 KOAK 052353Z 25007KT 10SM SCT018 SCT040 BKN060 OVC180 13/07 A2969 RMK AO2 SLP052 60006 T01280067 10133 20117 57003 $
KSQL - San Carlos Airpo, California, USA
Distance from station: NW 34km
Updated: 2020-04-05 19:47
Mostly cloudy
Mostly cloudy
 Wind from SW
Wind: SW 13 km/h
Temperature: 12°C
Dew Point: 5°C
Humidity: 63%
Barometer: 1005.8 hPa
Clouds: Mostly cloudy
Visibility: 16 km
Cloud details: Mostly cloudy 1158 m
Mostly cloudy 1463 m
2020/04/06 00:47 KSQL 060047Z 23007KT 10SM BKN038 BKN048 12/05 A2970
 
KSFO - San Francisco, California, USA
Distance from station: NW 49km
Updated: 2020-04-05 18:56
Mostly cloudy
Mostly cloudy
 Wind from SW
Wind: SW 20 km/h
Temperature: 13°C
Dew Point: 5°C
Humidity: 59%
Barometer: 1005.1 hPa
Clouds: Mostly cloudy
Visibility: 16 km
Cloud details: Few Clouds 579 m
Partly cloudy 975 m
Mostly cloudy 2286 m
Mostly cloudy 4572 m
2020/04/05 23:56 KSFO 052356Z 23011KT 10SM FEW019 SCT032 BKN075 BKN150 13/05 A2968 RMK AO2 SLP051 60004 T01280050 10133 20106 58001 $
KE16 - San Martin, California, USA
Distance from station: ESE 43km
Updated: 2019-11-14 03:35
NOT Current
Overcast
Overcast
 Wind from SE
Wind: SE 11 km/h
Temperature: 12°C
Dew Point: 10°C
Humidity: 88%
Barometer: 1017.6 hPa
Clouds: Overcast
Visibility: 16 km
Cloud details: Overcast 427 m
2019/11/14 09:35 KE16 140935Z AUTO 13006KT 10SM OVC014 12/10 A3005 RMK AO2
 
KWVI - Watsonville, California, USA
Distance from station: SSE 44km
Updated: 2020-04-05 18:53
Light rain, Overcast
Light rain, Overcast
 Wind from calm
Wind: Calm
Temperature: 11°C
Barometer: 1005.8 hPa
Summary: Light rain
Clouds: Overcast
Visibility: 10 km
Cloud details: Mostly cloudy 1433 m
Overcast 1676 m
2020/04/05 23:53 KWVI 052353Z AUTO 00000KT 6SM -RA BKN047 OVC055 11/ A2970 RMK AO2 SLP057 P0008 60068 T0106 10128 20106 57005 $
KHAF - Half Moon Bay, California, USA
Distance from station: WNW 50km
Updated: 2020-04-05 19:40
Partly cloudy
Partly cloudy
 Wind from W
Wind: W 9 km/h
Temperature: 11°C
Dew Point: 5°C
Humidity: 67%
Barometer: 1005.8 hPa
Clouds: Partly cloudy
Visibility: 16 km
Cloud details: Partly cloudy 1433 m
2020/04/06 00:40 KHAF 060040Z AUTO 28005KT 10SM SCT047 11/05 A2970 RMK AO2
 
KHWD - Hayward, California, USA
Distance from station: N 44km
Updated: 2020-04-05 18:54
Overcast
Overcast
 Wind from WNW
Wind: WNW 17 km/h
Temperature: 11°C
Dew Point: 6°C
Humidity: 72%
Barometer: 1005.1 hPa
Clouds: Overcast
Visibility: 16 km
Cloud details: Mostly cloudy 853 m
Overcast 1372 m
2020/04/05 23:54 KHWD 052354Z 30009KT 10SM BKN028 OVC045 11/06 A2968 RMK AO2 RAE03B34E44 SLP060 P0000 60013 T01060061 10117 20106 58003
KLVK - Livermore, California, USA
Distance from station: NNE 51km
Updated: 2020-04-05 18:53
Light rain, Overcast
Light rain, Overcast
 Wind from W
Wind: W 13 km/h
Temperature: 9°C
Wind Chill: 7°C
Dew Point: 8°C
Humidity: 94%
Barometer: 1005.1 hPa
Summary: Light rain
Clouds: Overcast
Visibility: 16 km
Cloud details: Few Clouds 792 m
Overcast 1524 m
2020/04/05 23:53 KLVK 052353Z 27007KT 10SM -RA FEW026 OVC050 09/08 A2968 RMK AO2 SLP048 P0003 6//// T00940078 10133 20094 55001 $